sensor_id;sensor_type;location;lat;lon;timestamp;pressure;altitude;pressure_sealevel;temperature;humidity
57827;BME280;43656;57.746;11.780;2023-04-23T00:00:07;100361.19;;;16.58;39.48
57827;BME280;43656;57.746;11.780;2023-04-23T00:02:36;100346.72;;;16.35;39.41
57827;BME280;43656;57.746;11.780;2023-04-23T00:05:04;100345.25;;;16.44;39.13
57827;BME280;43656;57.746;11.780;2023-04-23T00:07:32;100330.16;;;16.54;39.16
57827;BME280;43656;57.746;11.780;2023-04-23T00:09:58;100341.81;;;16.71;38.86
57827;BME280;43656;57.746;11.780;2023-04-23T00:12:24;100333.09;;;16.69;38.70
57827;BME280;43656;57.746;11.780;2023-04-23T00:14:52;100321.25;;;16.75;38.79
57827;BME280;43656;57.746;11.780;2023-04-23T00:17:17;100316.84;;;16.74;38.64
57827;BME280;43656;57.746;11.780;2023-04-23T00:19:44;100300.09;;;16.60;38.65
57827;BME280;43656;57.746;11.780;2023-04-23T00:22:10;100302.38;;;16.68;38.41
57827;BME280;43656;57.746;11.780;2023-04-23T00:24:35;100305.94;;;16.69;38.41
57827;BME280;43656;57.746;11.780;2023-04-23T00:27:03;100302.13;;;16.70;38.53
57827;BME280;43656;57.746;11.780;2023-04-23T00:29:28;100291.44;;;16.80;38.36
57827;BME280;43656;57.746;11.780;2023-04-23T00:31:54;100272.25;;;16.70;38.21
57827;BME280;43656;57.746;11.780;2023-04-23T00:34:19;100277.19;;;16.73;37.82
57827;BME280;43656;57.746;11.780;2023-04-23T00:36:45;100279.97;;;16.78;38.10
57827;BME280;43656;57.746;11.780;2023-04-23T00:39:10;100287.13;;;16.84;37.68
57827;BME280;43656;57.746;11.780;2023-04-23T00:41:35;100281.97;;;16.83;37.73
57827;BME280;43656;57.746;11.780;2023-04-23T00:44:01;100269.13;;;16.78;37.94
57827;BME280;43656;57.746;11.780;2023-04-23T00:46:27;100286.00;;;16.80;37.43
57827;BME280;43656;57.746;11.780;2023-04-23T00:48:53;100306.28;;;16.95;37.65
57827;BME280;43656;57.746;11.780;2023-04-23T00:51:20;100321.25;;;16.97;37.40
57827;BME280;43656;57.746;11.780;2023-04-23T00:53:46;100318.31;;;16.99;37.80
57827;BME280;43656;57.746;11.780;2023-04-23T00:56:11;100325.56;;;16.93;39.08
57827;BME280;43656;57.746;11.780;2023-04-23T00:58:37;100329.97;;;16.77;40.47
57827;BME280;43656;57.746;11.780;2023-04-23T01:01:03;100342.63;;;16.72;41.82
57827;BME280;43656;57.746;11.780;2023-04-23T01:03:30;100344.50;;;16.49;44.49
57827;BME280;43656;57.746;11.780;2023-04-23T01:05:57;100329.13;;;16.21;46.75
57827;BME280;43656;57.746;11.780;2023-04-23T01:08:23;100321.81;;;16.05;48.30
57827;BME280;43656;57.746;11.780;2023-04-23T01:10:49;100316.97;;;15.73;49.82
57827;BME280;43656;57.746;11.780;2023-04-23T01:13:15;100308.44;;;15.52;50.27
57827;BME280;43656;57.746;11.780;2023-04-23T01:15:42;100301.84;;;15.48;50.98
57827;BME280;43656;57.746;11.780;2023-04-23T01:18:08;100298.81;;;15.45;51.52
57827;BME280;43656;57.746;11.780;2023-04-23T01:20:34;100267.47;;;15.20;52.07
57827;BME280;43656;57.746;11.780;2023-04-23T01:23:01;100282.13;;;15.08;51.92
57827;BME280;43656;57.746;11.780;2023-04-23T01:25:27;100263.31;;;15.01;52.14
57827;BME280;43656;57.746;11.780;2023-04-23T01:27:52;100295.00;;;15.29;52.62
57827;BME280;43656;57.746;11.780;2023-04-23T01:30:19;100289.97;;;15.21;52.60
57827;BME280;43656;57.746;11.780;2023-04-23T01:32:46;100289.78;;;15.11;52.85
57827;BME280;43656;57.746;11.780;2023-04-23T01:35:12;100292.63;;;15.04;52.29
57827;BME280;43656;57.746;11.780;2023-04-23T01:37:38;100291.88;;;15.09;51.94
57827;BME280;43656;57.746;11.780;2023-04-23T01:40:05;100281.38;;;15.12;51.75
57827;BME280;43656;57.746;11.780;2023-04-23T01:42:32;100282.13;;;15.08;51.79
57827;BME280;43656;57.746;11.780;2023-04-23T01:44:57;100287.53;;;15.08;51.99
57827;BME280;43656;57.746;11.780;2023-04-23T01:47:23;100282.13;;;15.08;51.81
57827;BME280;43656;57.746;11.780;2023-04-23T01:49:48;100274.47;;;15.04;51.81
57827;BME280;43656;57.746;11.780;2023-04-23T01:52:14;100265.88;;;15.08;51.78
57827;BME280;43656;57.746;11.780;2023-04-23T01:54:39;100272.09;;;15.08;52.14
57827;BME280;43656;57.746;11.780;2023-04-23T01:57:05;100268.94;;;14.99;51.53
57827;BME280;43656;57.746;11.780;2023-04-23T01:59:30;100265.69;;;14.97;52.25
57827;BME280;43656;57.746;11.780;2023-04-23T02:01:56;100252.97;;;14.86;52.39
57827;BME280;43656;57.746;11.780;2023-04-23T02:04:21;100262.50;;;14.89;51.68
57827;BME280;43656;57.746;11.780;2023-04-23T02:06:49;100259.81;;;14.89;51.77
57827;BME280;43656;57.746;11.780;2023-04-23T02:09:14;100261.94;;;14.87;51.92
57827;BME280;43656;57.746;11.780;2023-04-23T02:11:40;100243.25;;;14.73;52.00
57827;BME280;43656;57.746;11.780;2023-04-23T02:14:06;100243.09;;;14.80;52.09
57827;BME280;43656;57.746;11.780;2023-04-23T02:16:32;100240.50;;;14.85;51.74
57827;BME280;43656;57.746;11.780;2023-04-23T02:18:58;100238.91;;;14.72;52.15
57827;BME280;43656;57.746;11.780;2023-04-23T02:21:24;100239.91;;;14.83;52.52
57827;BME280;43656;57.746;11.780;2023-04-23T02:23:51;100237.19;;;14.83;53.03
57827;BME280;43656;57.746;11.780;2023-04-23T02:26:17;100242.28;;;14.79;53.03
57827;BME280;43656;57.746;11.780;2023-04-23T02:28:43;100221.22;;;14.82;52.59
57827;BME280;43656;57.746;11.780;2023-04-23T02:31:09;100229.66;;;14.85;53.08
57827;BME280;43656;57.746;11.780;2023-04-23T02:33:34;100217.81;;;14.74;52.95
57827;BME280;43656;57.746;11.780;2023-04-23T02:36:00;100219.38;;;14.70;53.55
57827;BME280;43656;57.746;11.780;2023-04-23T02:38:25;100187.97;;;14.46;53.69
57827;BME280;43656;57.746;11.780;2023-04-23T02:40:51;100200.91;;;14.55;53.57
57827;BME280;43656;57.746;11.780;2023-04-23T02:43:16;100214.09;;;14.64;53.81
57827;BME280;43656;57.746;11.780;2023-04-23T02:45:42;100208.31;;;14.48;54.72
57827;BME280;43656;57.746;11.780;2023-04-23T02:48:09;100185.19;;;14.41;54.61
57827;BME280;43656;57.746;11.780;2023-04-23T02:50:36;100195.88;;;14.47;54.73
57827;BME280;43656;57.746;11.780;2023-04-23T02:53:03;100191.72;;;14.56;55.10
57827;BME280;43656;57.746;11.780;2023-04-23T02:55:29;100194.44;;;14.56;54.52
57827;BME280;43656;57.746;11.780;2023-04-23T02:57:56;100179.28;;;14.44;55.07
57827;BME280;43656;57.746;11.780;2023-04-23T03:00:23;100185.03;;;14.47;55.31
57827;BME280;43656;57.746;11.780;2023-04-23T03:02:48;100188.13;;;14.51;55.59
57827;BME280;43656;57.746;11.780;2023-04-23T03:05:14;100197.25;;;14.50;55.46
57827;BME280;43656;57.746;11.780;2023-04-23T03:07:40;100169.50;;;14.43;55.88
57827;BME280;43656;57.746;11.780;2023-04-23T03:10:05;100152.69;;;14.41;56.65
57827;BME280;43656;57.746;11.780;2023-04-23T03:12:32;100167.19;;;14.34;58.17
57827;BME280;43656;57.746;11.780;2023-04-23T03:14:57;100164.13;;;14.31;58.06
57827;BME280;43656;57.746;11.780;2023-04-23T03:17:23;100154.34;;;14.30;58.70
57827;BME280;43656;57.746;11.780;2023-04-23T03:19:49;100156.38;;;14.23;58.92
57827;BME280;43656;57.746;11.780;2023-04-23T03:22:14;100126.78;;;14.04;59.80
57827;BME280;43656;57.746;11.780;2023-04-23T03:24:39;100144.72;;;14.22;60.06
57827;BME280;43656;57.746;11.780;2023-04-23T03:27:05;100130.41;;;14.10;59.85
57827;BME280;43656;57.746;11.780;2023-04-23T03:29:30;100137.47;;;14.11;60.78
57827;BME280;43656;57.746;11.780;2023-04-23T03:31:56;100125.47;;;14.07;60.33
57827;BME280;43656;57.746;11.780;2023-04-23T03:34:21;100146.97;;;14.25;60.87
57827;BME280;43656;57.746;11.780;2023-04-23T03:36:47;100123.81;;;14.18;61.01
57827;BME280;43656;57.746;11.780;2023-04-23T03:39:13;100110.22;;;13.77;62.49
57827;BME280;43656;57.746;11.780;2023-04-23T03:41:39;100115.84;;;13.99;62.07
57827;BME280;43656;57.746;11.780;2023-04-23T03:44:04;100111.47;;;14.10;61.88
57827;BME280;43656;57.746;11.780;2023-04-23T03:46:30;100117.38;;;13.95;63.23
57827;BME280;43656;57.746;11.780;2023-04-23T03:48:55;100098.13;;;13.92;62.67
57827;BME280;43656;57.746;11.780;2023-04-23T03:51:21;100125.59;;;14.00;63.47
57827;BME280;43656;57.746;11.780;2023-04-23T03:53:46;100106.66;;;14.00;63.28
57827;BME280;43656;57.746;11.780;2023-04-23T03:56:12;100100.34;;;13.83;64.19
57827;BME280;43656;57.746;11.780;2023-04-23T03:58:37;100109.16;;;13.90;64.28
57827;BME280;43656;57.746;11.780;2023-04-23T04:01:03;100109.88;;;13.85;64.83
57827;BME280;43656;57.746;11.780;2023-04-23T04:03:29;100105.66;;;13.78;65.85
57827;BME280;43656;57.746;11.780;2023-04-23T04:05:54;100111.06;;;13.78;66.08
57827;BME280;43656;57.746;11.780;2023-04-23T04:08:20;100112.25;;;13.70;67.23
57827;BME280;43656;57.746;11.780;2023-04-23T04:10:46;100106.13;;;13.63;68.13
57827;BME280;43656;57.746;11.780;2023-04-23T04:13:12;100117.66;;;13.70;68.26
57827;BME280;43656;57.746;11.780;2023-04-23T04:15:37;100111.88;;;13.67;69.12
57827;BME280;43656;57.746;11.780;2023-04-23T04:18:03;100110.13;;;13.60;70.22
57827;BME280;43656;57.746;11.780;2023-04-23T04:20:28;100092.28;;;13.59;69.99
57827;BME280;43656;57.746;11.780;2023-04-23T04:22:54;100100.75;;;13.51;70.57
57827;BME280;43656;57.746;11.780;2023-04-23T04:25:20;100097.56;;;13.43;71.31
57827;BME280;43656;57.746;11.780;2023-04-23T04:27:49;100100.88;;;13.45;71.84
57827;BME280;43656;57.746;11.780;2023-04-23T04:30:15;100088.75;;;13.47;71.94
57827;BME280;43656;57.746;11.780;2023-04-23T04:32:40;100097.91;;;13.46;72.32
57827;BME280;43656;57.746;11.780;2023-04-23T04:35:07;100090.75;;;13.40;72.79
57827;BME280;43656;57.746;11.780;2023-04-23T04:37:33;100088.50;;;13.37;73.32
57827;BME280;43656;57.746;11.780;2023-04-23T04:39:59;100083.09;;;13.37;73.80
57827;BME280;43656;57.746;11.780;2023-04-23T04:42:26;100066.66;;;13.27;73.94
57827;BME280;43656;57.746;11.780;2023-04-23T04:44:51;100066.19;;;13.30;74.32
57827;BME280;43656;57.746;11.780;2023-04-23T04:47:17;100058.44;;;13.22;75.18
57827;BME280;43656;57.746;11.780;2023-04-23T04:49:43;100071.59;;;13.30;74.99
57827;BME280;43656;57.746;11.780;2023-04-23T04:52:09;100076.31;;;13.34;75.00
57827;BME280;43656;57.746;11.780;2023-04-23T04:54:35;100062.44;;;13.31;75.44
57827;BME280;43656;57.746;11.780;2023-04-23T04:57:00;100059.38;;;13.27;75.36
57827;BME280;43656;57.746;11.780;2023-04-23T04:59:26;100062.69;;;13.41;75.60
57827;BME280;43656;57.746;11.780;2023-04-23T05:01:52;100064.41;;;13.47;75.76
57827;BME280;43656;57.746;11.780;2023-04-23T05:04:17;100077.94;;;13.47;76.06
57827;BME280;43656;57.746;11.780;2023-04-23T05:06:43;100071.72;;;13.47;76.42
57827;BME280;43656;57.746;11.780;2023-04-23T05:09:09;100073.72;;;13.51;76.33
57827;BME280;43656;57.746;11.780;2023-04-23T05:11:34;100083.22;;;13.54;76.77
57827;BME280;43656;57.746;11.780;2023-04-23T05:14:00;100061.84;;;13.40;76.93
57827;BME280;43656;57.746;11.780;2023-04-23T05:16:25;100086.25;;;13.57;77.24
57827;BME280;43656;57.746;11.780;2023-04-23T05:18:51;100088.50;;;13.60;77.30
57827;BME280;43656;57.746;11.780;2023-04-23T05:21:16;100085.22;;;13.58;77.59
57827;BME280;43656;57.746;11.780;2023-04-23T05:23:43;100087.34;;;13.56;78.29
57827;BME280;43656;57.746;11.780;2023-04-23T05:26:09;100094.03;;;13.54;78.86
57827;BME280;43656;57.746;11.780;2023-04-23T05:28:35;100090.28;;;13.55;79.17
57827;BME280;43656;57.746;11.780;2023-04-23T05:31:00;100086.78;;;13.54;79.78
57827;BME280;43656;57.746;11.780;2023-04-23T05:33:26;100082.41;;;13.53;80.05
57827;BME280;43656;57.746;11.780;2023-04-23T05:35:52;100096.50;;;13.55;80.37
57827;BME280;43656;57.746;11.780;2023-04-23T05:38:19;100091.22;;;13.49;81.00
57827;BME280;43656;57.746;11.780;2023-04-23T05:40:44;100092.97;;;13.43;81.61
57827;BME280;43656;57.746;11.780;2023-04-23T05:43:10;100101.69;;;13.45;82.14
57827;BME280;43656;57.746;11.780;2023-04-23T05:45:36;100087.34;;;13.33;83.43
57827;BME280;43656;57.746;11.780;2023-04-23T05:48:01;100083.09;;;13.37;83.65
57827;BME280;43656;57.746;11.780;2023-04-23T05:50:26;100077.69;;;13.37;83.50
57827;BME280;43656;57.746;11.780;2023-04-23T05:52:52;100074.56;;;13.28;84.13
57827;BME280;43656;57.746;11.780;2023-04-23T05:55:19;100067.97;;;13.36;83.93
57827;BME280;43656;57.746;11.780;2023-04-23T05:57:45;100065.50;;;13.34;84.33
57827;BME280;43656;57.746;11.780;2023-04-23T06:00:11;100071.50;;;13.25;84.79
57827;BME280;43656;57.746;11.780;2023-04-23T06:02:37;100051.34;;;13.21;85.31
57827;BME280;43656;57.746;11.780;2023-04-23T06:05:04;100049.97;;;13.18;85.49
57827;BME280;43656;57.746;11.780;2023-04-23T06:07:30;100061.59;;;13.30;85.80
57827;BME280;43656;57.746;11.780;2023-04-23T06:09:56;100078.41;;;13.32;85.97
57827;BME280;43656;57.746;11.780;2023-04-23T06:12:21;100085.47;;;13.33;85.99
57827;BME280;43656;57.746;11.780;2023-04-23T06:14:46;100080.59;;;13.24;86.79
57827;BME280;43656;57.746;11.780;2023-04-23T06:17:12;100078.75;;;13.24;87.25
57827;BME280;43656;57.746;11.780;2023-04-23T06:19:38;100073.72;;;13.28;87.33
57827;BME280;43656;57.746;11.780;2023-04-23T06:22:03;100065.63;;;13.28;87.99
57827;BME280;43656;57.746;11.780;2023-04-23T06:24:29;100063.00;;;13.21;88.05
57827;BME280;43656;57.746;11.780;2023-04-23T06:26:55;100076.06;;;13.36;88.08
57827;BME280;43656;57.746;11.780;2023-04-23T06:29:22;100061.59;;;13.19;88.67
57827;BME280;43656;57.746;11.780;2023-04-23T06:31:47;100079.59;;;13.25;89.30
57827;BME280;43656;57.746;11.780;2023-04-23T06:34:13;100082.06;;;13.26;89.12
57827;BME280;43656;57.746;11.780;2023-04-23T06:36:38;100076.66;;;13.26;89.44
57827;BME280;43656;57.746;11.780;2023-04-23T06:39:04;100069.22;;;13.22;89.62
57827;BME280;43656;57.746;11.780;2023-04-23T06:41:29;100068.69;;;13.31;89.33
57827;BME280;43656;57.746;11.780;2023-04-23T06:43:55;100069.97;;;13.29;90.03
57827;BME280;43656;57.746;11.780;2023-04-23T06:46:20;100051.53;;;13.26;90.20
57827;BME280;43656;57.746;11.780;2023-04-23T06:48:46;100060.56;;;13.43;90.06
57827;BME280;43656;57.746;11.780;2023-04-23T06:51:11;100057.03;;;13.43;90.33
57827;BME280;43656;57.746;11.780;2023-04-23T06:53:36;100063.38;;;13.48;90.50
57827;BME280;43656;57.746;11.780;2023-04-23T06:56:02;100068.53;;;13.50;90.48
57827;BME280;43656;57.746;11.780;2023-04-23T06:58:27;100058.53;;;13.50;90.82
57827;BME280;43656;57.746;11.780;2023-04-23T07:01:00;100062.31;;;13.61;90.94
57827;BME280;43656;57.746;11.780;2023-04-23T07:03:28;100055.72;;;13.57;90.93
57827;BME280;43656;57.746;11.780;2023-04-23T07:05:53;100058.19;;;13.58;91.23
57827;BME280;43656;57.746;11.780;2023-04-23T07:08:19;100064.88;;;13.68;91.10
57827;BME280;43656;57.746;11.780;2023-04-23T07:10:47;100076.75;;;13.78;90.99
57827;BME280;43656;57.746;11.780;2023-04-23T07:13:12;100080.72;;;13.76;91.24
57827;BME280;43656;57.746;11.780;2023-04-23T07:15:38;100072.50;;;13.71;91.75
57827;BME280;43656;57.746;11.780;2023-04-23T07:18:04;100086.13;;;13.76;91.88
57827;BME280;43656;57.746;11.780;2023-04-23T07:20:31;100078.75;;;13.71;93.05
57827;BME280;43656;57.746;11.780;2023-04-23T07:22:57;100066.25;;;13.82;92.66
57827;BME280;43656;57.746;11.780;2023-04-23T07:25:23;100073.53;;;13.93;92.36
57827;BME280;43656;57.746;11.780;2023-04-23T07:27:49;100048.97;;;13.83;92.55
57827;BME280;43656;57.746;11.780;2023-04-23T07:30:15;100075.38;;;14.04;92.69
57827;BME280;43656;57.746;11.780;2023-04-23T07:32:41;100077.97;;;13.99;93.44
57827;BME280;43656;57.746;11.780;2023-04-23T07:35:07;100069.38;;;14.02;93.40
57827;BME280;43656;57.746;11.780;2023-04-23T07:37:35;100075.38;;;14.04;93.46
57827;BME280;43656;57.746;11.780;2023-04-23T07:40:00;100081.75;;;13.98;94.20
57827;BME280;43656;57.746;11.780;2023-04-23T07:42:26;100080.81;;;13.93;94.93
57827;BME280;43656;57.746;11.780;2023-04-23T07:44:52;100081.50;;;14.00;94.09
57827;BME280;43656;57.746;11.780;2023-04-23T07:47:18;100081.84;;;14.03;94.48
57827;BME280;43656;57.746;11.780;2023-04-23T07:49:43;100079.25;;;14.08;94.35
57827;BME280;43656;57.746;11.780;2023-04-23T07:52:09;100080.59;;;14.23;94.10
57827;BME280;43656;57.746;11.780;2023-04-23T07:54:34;100092.81;;;14.37;94.19
57827;BME280;43656;57.746;11.780;2023-04-23T07:57:00;100083.47;;;14.45;93.94
57827;BME280;43656;57.746;11.780;2023-04-23T07:59:25;100090.09;;;14.66;93.10
57827;BME280;43656;57.746;11.780;2023-04-23T08:01:50;100089.94;;;14.72;94.01
57827;BME280;43656;57.746;11.780;2023-04-23T08:04:16;100088.31;;;14.71;94.27
57827;BME280;43656;57.746;11.780;2023-04-23T08:06:42;100085.78;;;14.82;94.93
57827;BME280;43656;57.746;11.780;2023-04-23T08:09:07;100090.06;;;14.94;94.82
57827;BME280;43656;57.746;11.780;2023-04-23T08:11:33;100096.56;;;14.93;95.14
57827;BME280;43656;57.746;11.780;2023-04-23T08:13:59;100099.81;;;14.95;95.43
57827;BME280;43656;57.746;11.780;2023-04-23T08:16:26;100097.28;;;15.06;95.19
57827;BME280;43656;57.746;11.780;2023-04-23T08:18:51;100056.31;;;14.68;95.74
57827;BME280;43656;57.746;11.780;2023-04-23T08:21:16;100085.63;;;14.88;95.41
57827;BME280;43656;57.746;11.780;2023-04-23T08:23:42;100093.41;;;14.68;96.86
57827;BME280;43656;57.746;11.780;2023-04-23T08:26:07;100086.31;;;14.67;96.60
57827;BME280;43656;57.746;11.780;2023-04-23T08:28:35;100109.31;;;14.64;96.81
57827;BME280;43656;57.746;11.780;2023-04-23T08:31:01;100104.19;;;14.39;97.49
57827;BME280;43656;57.746;11.780;2023-04-23T08:33:26;100109.28;;;14.36;97.51
57827;BME280;43656;57.746;11.780;2023-04-23T08:35:52;100101.28;;;14.29;97.01
57827;BME280;43656;57.746;11.780;2023-04-23T08:38:17;100098.94;;;14.32;96.12
57827;BME280;43656;57.746;11.780;2023-04-23T08:40:44;100116.19;;;14.43;95.38
57827;BME280;43656;57.746;11.780;2023-04-23T08:43:18;100121.09;;;14.58;94.88
57827;BME280;43656;57.746;11.780;2023-04-23T08:45:47;100129.56;;;14.50;94.75
57827;BME280;43656;57.746;11.780;2023-04-23T08:48:14;100124.75;;;14.64;94.32
57827;BME280;43656;57.746;11.780;2023-04-23T08:50:43;100128.31;;;14.52;94.57
57827;BME280;43656;57.746;11.780;2023-04-23T08:53:10;100122.44;;;14.44;94.74
57827;BME280;43656;57.746;11.780;2023-04-23T08:55:39;100127.13;;;14.48;94.35
57827;BME280;43656;57.746;11.780;2023-04-23T08:58:05;100132.00;;;14.34;94.90
57827;BME280;43656;57.746;11.780;2023-04-23T09:00:32;100108.22;;;13.96;95.79
57827;BME280;43656;57.746;11.780;2023-04-23T09:02:59;100144.19;;;14.08;95.38
57827;BME280;43656;57.746;11.780;2023-04-23T09:05:25;100146.06;;;13.96;95.96
57827;BME280;43656;57.746;11.780;2023-04-23T09:07:52;100146.78;;;13.92;95.36
57827;BME280;43656;57.746;11.780;2023-04-23T09:10:18;100123.88;;;13.82;95.20
57827;BME280;43656;57.746;11.780;2023-04-23T09:12:43;100149.63;;;13.73;96.35
57827;BME280;43656;57.746;11.780;2023-04-23T09:15:09;100125.88;;;13.63;96.01
57827;BME280;43656;57.746;11.780;2023-04-23T09:17:44;100153.16;;;13.85;95.42
57827;BME280;43656;57.746;11.780;2023-04-23T09:20:11;100140.72;;;14.25;93.11
57827;BME280;43656;57.746;11.780;2023-04-23T09:25:04;100148.06;;;14.53;92.41
57827;BME280;43656;57.746;11.780;2023-04-23T09:27:30;100103.78;;;14.30;92.33
57827;BME280;43656;57.746;11.780;2023-04-23T09:29:55;100152.88;;;14.63;92.43
57827;BME280;43656;57.746;11.780;2023-04-23T09:32:31;100153.69;;;14.63;92.50
57827;BME280;43656;57.746;11.780;2023-04-23T09:34:57;100160.13;;;14.74;92.39
57827;BME280;43656;57.746;11.780;2023-04-23T09:37:26;100158.44;;;14.85;91.31
57827;BME280;43656;57.746;11.780;2023-04-23T09:39:51;100159.53;;;14.72;90.85
57827;BME280;43656;57.746;11.780;2023-04-23T09:42:22;100132.41;;;14.43;91.23
57827;BME280;43656;57.746;11.780;2023-04-23T09:45:16;100157.72;;;14.61;91.04
57827;BME280;43656;57.746;11.780;2023-04-23T09:50:13;100164.63;;;14.68;90.37
57827;BME280;43656;57.746;11.780;2023-04-23T09:52:39;100156.97;;;14.65;90.54
57827;BME280;43656;57.746;11.780;2023-04-23T09:55:05;100127.19;;;14.25;90.93
57827;BME280;43656;57.746;11.780;2023-04-23T09:57:35;100164.91;;;14.55;90.25
57827;BME280;43656;57.746;11.780;2023-04-23T10:00:12;100171.16;;;14.44;90.47
57827;BME280;43656;57.746;11.780;2023-04-23T10:02:45;100176.47;;;14.39;90.35
57827;BME280;43656;57.746;11.780;2023-04-23T10:05:19;100175.00;;;14.07;91.59
57827;BME280;43656;57.746;11.780;2023-04-23T10:07:46;100165.81;;;14.08;91.03
57827;BME280;43656;57.746;11.780;2023-04-23T10:10:16;100176.88;;;14.07;91.34
57827;BME280;43656;57.746;11.780;2023-04-23T10:12:43;100172.53;;;14.18;91.04
57827;BME280;43656;57.746;11.780;2023-04-23T10:15:09;100168.31;;;13.98;92.08
57827;BME280;43656;57.746;11.780;2023-04-23T10:17:36;100174.63;;;14.27;90.29
57827;BME280;43656;57.746;11.780;2023-04-23T10:20:02;100168.34;;;14.39;89.51
57827;BME280;43656;57.746;11.780;2023-04-23T10:22:29;100182.69;;;14.39;89.62
57827;BME280;43656;57.746;11.780;2023-04-23T10:24:56;100175.31;;;14.34;89.49
57827;BME280;43656;57.746;11.780;2023-04-23T10:27:28;100154.06;;;14.15;89.64
57827;BME280;43656;57.746;11.780;2023-04-23T10:29:56;100169.94;;;14.11;90.01
57827;BME280;43656;57.746;11.780;2023-04-23T10:32:22;100173.69;;;14.22;89.18
57827;BME280;43656;57.746;11.780;2023-04-23T10:34:48;100178.84;;;14.23;88.63
57827;BME280;43656;57.746;11.780;2023-04-23T10:37:15;100180.47;;;14.36;88.14
57827;BME280;43656;57.746;11.780;2023-04-23T10:39:45;100181.25;;;14.48;87.61
57827;BME280;43656;57.746;11.780;2023-04-23T10:42:12;100182.22;;;14.42;87.09
57827;BME280;43656;57.746;11.780;2023-04-23T10:44:38;100175.94;;;14.65;85.61
57827;BME280;43656;57.746;11.780;2023-04-23T10:47:10;100160.63;;;14.30;85.28
57827;BME280;43656;57.746;11.780;2023-04-23T10:49:37;100171.63;;;14.52;84.21
57827;BME280;43656;57.746;11.780;2023-04-23T10:52:12;100172.00;;;14.73;82.49
57827;BME280;43656;57.746;11.780;2023-04-23T10:54:56;100169.00;;;14.86;81.16
57827;BME280;43656;57.746;11.780;2023-04-23T10:57:23;100172.63;;;14.92;80.27
57827;BME280;43656;57.746;11.780;2023-04-23T10:59:53;100174.69;;;14.85;80.05
57827;BME280;43656;57.746;11.780;2023-04-23T11:02:22;100175.34;;;14.92;80.08
57827;BME280;43656;57.746;11.780;2023-04-23T11:04:57;100173.38;;;14.87;80.46
57827;BME280;43656;57.746;11.780;2023-04-23T11:07:31;100174.34;;;14.81;79.65
57827;BME280;43656;57.746;11.780;2023-04-23T11:10:10;100156.56;;;14.73;78.30
57827;BME280;43656;57.746;11.780;2023-04-23T11:12:38;100174.81;;;14.78;78.44
57827;BME280;43656;57.746;11.780;2023-04-23T11:15:15;100162.13;;;14.67;78.50
57827;BME280;43656;57.746;11.780;2023-04-23T11:22:40;100185.50;;;15.13;78.75
57827;BME280;43656;57.746;11.780;2023-04-23T11:25:09;100181.25;;;15.51;77.79
57827;BME280;43656;57.746;11.780;2023-04-23T11:27:46;100171.22;;;15.68;76.92
57827;BME280;43656;57.746;11.780;2023-04-23T11:30:14;100158.47;;;15.35;76.05
57827;BME280;43656;57.746;11.780;2023-04-23T11:32:42;100185.19;;;15.43;76.01
57827;BME280;43656;57.746;11.780;2023-04-23T11:35:09;100175.31;;;15.37;76.51
57827;BME280;43656;57.746;11.780;2023-04-23T11:37:39;100183.47;;;15.54;75.88
57827;BME280;43656;57.746;11.780;2023-04-23T11:40:07;100186.00;;;15.61;75.60
57827;BME280;43656;57.746;11.780;2023-04-23T11:45:28;100194.38;;;15.25;77.50
57827;BME280;43656;57.746;11.780;2023-04-23T11:47:59;100194.94;;;15.11;77.81
57827;BME280;43656;57.746;11.780;2023-04-23T11:52:52;100192.13;;;15.22;77.86
57827;BME280;43656;57.746;11.780;2023-04-23T11:55:18;100194.78;;;15.34;77.15
57827;BME280;43656;57.746;11.780;2023-04-23T11:57:45;100186.81;;;15.11;77.08
57827;BME280;43656;57.746;11.780;2023-04-23T12:00:25;100196.84;;;15.27;76.69
57827;BME280;43656;57.746;11.780;2023-04-23T12:02:51;100196.44;;;15.35;76.36
57827;BME280;43656;57.746;11.780;2023-04-23T12:05:22;100180.09;;;15.30;76.36
57827;BME280;43656;57.746;11.780;2023-04-23T12:07:50;100187.53;;;15.23;76.61
57827;BME280;43656;57.746;11.780;2023-04-23T12:10:20;100193.00;;;15.40;76.11
57827;BME280;43656;57.746;11.780;2023-04-23T12:12:50;100198.38;;;15.23;76.69
57827;BME280;43656;57.746;11.780;2023-04-23T12:15:16;100195.03;;;15.33;76.95
57827;BME280;43656;57.746;11.780;2023-04-23T12:17:47;100197.66;;;15.44;76.79
57827;BME280;43656;57.746;11.780;2023-04-23T12:20:18;100205.63;;;15.17;77.74
57827;BME280;43656;57.746;11.780;2023-04-23T12:22:44;100203.56;;;15.24;77.38
57827;BME280;43656;57.746;11.780;2023-04-23T12:25:09;100206.47;;;14.61;79.96
57827;BME280;43656;57.746;11.780;2023-04-23T12:27:39;100196.94;;;14.34;80.50
57827;BME280;43656;57.746;11.780;2023-04-23T12:30:07;100211.44;;;14.28;80.93
57827;BME280;43656;57.746;11.780;2023-04-23T12:32:33;100174.53;;;14.10;81.03
57827;BME280;43656;57.746;11.780;2023-04-23T12:34:59;100224.63;;;14.25;81.60
57827;BME280;43656;57.746;11.780;2023-04-23T12:37:29;100200.66;;;14.05;81.44
57827;BME280;43656;57.746;11.780;2023-04-23T12:39:55;100225.19;;;14.27;81.29
57827;BME280;43656;57.746;11.780;2023-04-23T12:42:24;100227.75;;;14.45;81.00
57827;BME280;43656;57.746;11.780;2023-04-23T12:44:50;100218.34;;;14.36;81.38
57827;BME280;43656;57.746;11.780;2023-04-23T12:47:16;100232.00;;;14.41;81.54
57827;BME280;43656;57.746;11.780;2023-04-23T12:49:44;100233.41;;;14.55;81.78
57827;BME280;43656;57.746;11.780;2023-04-23T12:52:10;100227.97;;;14.67;81.90